createdAt,value
2022-10-28T00:00:52.635Z,38.93
2022-10-28T00:03:20.517Z,38.73
2022-10-28T00:05:48.055Z,39.47
2022-10-28T00:08:15.578Z,38.77
2022-10-28T00:10:44.438Z,40.30
2022-10-28T00:13:12.049Z,39.60
2022-10-28T00:15:39.619Z,40.07
2022-10-28T00:18:07.242Z,39.20
2022-10-28T00:20:34.766Z,40.00
2022-10-28T00:23:02.288Z,40.20
2022-10-28T00:25:29.817Z,38.17
2022-10-28T00:27:58.670Z,39.57
2022-10-28T00:30:26.338Z,37.47
2022-10-28T00:32:54.153Z,40.50
2022-10-28T00:35:21.853Z,40.23
2022-10-28T00:37:49.369Z,39.50
2022-10-28T00:40:16.946Z,39.63
2022-10-28T00:42:44.483Z,40.63
2022-10-28T00:45:13.706Z,40.03
2022-10-28T00:47:45.290Z,39.80
2022-10-28T00:50:27.675Z,40.10
2022-10-28T00:52:59.758Z,40.47
2022-10-28T00:55:27.890Z,41.77
2022-10-28T00:57:57.044Z,40.33
2022-10-28T01:00:27.008Z,41.30
2022-10-28T01:02:54.632Z,40.43
2022-10-28T01:05:24.127Z,41.40
2022-10-28T01:07:54.230Z,39.40
2022-10-28T01:10:29.466Z,41.03
2022-10-28T01:13:11.220Z,40.33
2022-10-28T01:15:48.197Z,41.77
2022-10-28T01:18:23.526Z,39.83
2022-10-28T01:21:21.081Z,39.90
2022-10-28T01:24:00.570Z,40.00
2022-10-28T01:26:45.841Z,42.00
2022-10-28T01:29:45.857Z,41.87
2022-10-28T01:32:18.509Z,40.70
2022-10-28T01:34:53.992Z,40.33
2022-10-28T01:37:30.526Z,40.93
2022-10-28T01:40:09.405Z,40.57
2022-10-28T01:42:42.546Z,41.50
2022-10-28T01:45:15.807Z,41.53
2022-10-28T01:47:51.439Z,42.47
2022-10-28T01:50:25.933Z,41.90
2022-10-28T01:52:57.727Z,41.23
2022-10-28T01:55:29.134Z,42.77
2022-10-28T01:57:59.939Z,42.67
2022-10-28T02:00:28.348Z,40.60
2022-10-28T02:02:57.413Z,42.97
2022-10-28T02:05:39.868Z,42.53
2022-10-28T02:08:23.245Z,39.77
2022-10-28T02:11:04.175Z,43.33
2022-10-28T02:13:41.417Z,42.00
2022-10-28T02:16:18.594Z,43.20
2022-10-28T02:18:54.290Z,42.27
2022-10-28T02:21:31.142Z,43.30
2022-10-28T02:24:09.562Z,44.53
2022-10-28T02:26:42.294Z,45.00
2022-10-28T02:29:18.506Z,46.60
2022-10-28T02:31:50.122Z,48.63
2022-10-28T02:34:22.796Z,52.77
2022-10-28T02:36:53.618Z,51.30
2022-10-28T02:39:25.602Z,52.80
2022-10-28T02:41:56.889Z,52.47
2022-10-28T02:44:29.005Z,52.70
2022-10-28T02:47:00.836Z,54.17
2022-10-28T02:49:33.319Z,53.43
2022-10-28T02:52:04.341Z,53.40
2022-10-28T02:54:38.929Z,53.93
2022-10-28T02:57:10.561Z,53.73
2022-10-28T02:59:38.082Z,52.90
2022-10-28T03:02:05.886Z,54.57
2022-10-28T03:04:34.949Z,54.87
2022-10-28T03:07:02.494Z,55.90
2022-10-28T03:09:30.070Z,56.70
2022-10-28T03:11:57.585Z,55.60
2022-10-28T03:14:25.099Z,56.83
2022-10-28T03:16:52.658Z,56.47
2022-10-28T03:19:20.177Z,54.13
2022-10-28T03:21:49.046Z,53.80
2022-10-28T03:24:16.573Z,54.93
2022-10-28T03:26:44.101Z,56.63
2022-10-28T03:29:11.629Z,55.87
2022-10-28T03:31:39.193Z,55.43
2022-10-28T03:34:06.707Z,59.13
2022-10-28T03:36:34.241Z,56.43
2022-10-28T03:39:03.293Z,58.13
2022-10-28T03:41:30.850Z,58.73
2022-10-28T03:43:58.418Z,59.20
2022-10-28T03:46:25.962Z,57.60
2022-10-28T03:48:53.925Z,56.67
2022-10-28T03:51:21.621Z,58.83
2022-10-28T03:53:49.485Z,59.33
2022-10-28T03:56:18.391Z,60.17
2022-10-28T03:58:48.476Z,59.77
2022-10-28T04:01:16.131Z,64.13
2022-10-28T04:03:43.749Z,61.77
2022-10-28T04:06:11.281Z,62.83
2022-10-28T04:08:39.986Z,63.10
2022-10-28T04:11:07.546Z,61.23
2022-10-28T04:13:36.593Z,61.10
2022-10-28T04:16:04.388Z,61.30
2022-10-28T04:18:32.042Z,64.93
2022-10-28T04:20:59.662Z,66.30
2022-10-28T04:23:27.212Z,62.47
2022-10-28T04:25:55.547Z,63.97
2022-10-28T04:28:24.206Z,63.97
2022-10-28T04:30:53.093Z,61.07
2022-10-28T04:33:20.629Z,64.63
2022-10-28T04:35:49.034Z,64.83
2022-10-28T04:38:16.633Z,63.87
2022-10-28T04:40:44.220Z,67.10
2022-10-28T04:43:12.060Z,65.27
2022-10-28T04:45:39.983Z,66.43
2022-10-28T04:48:10.246Z,69.30
2022-10-28T04:50:37.867Z,65.70
2022-10-28T04:53:05.437Z,68.80
2022-10-28T04:55:32.954Z,64.40
2022-10-28T04:58:02.028Z,65.77
2022-10-28T05:00:30.999Z,64.33
2022-10-28T05:03:01.690Z,65.67
2022-10-28T05:05:30.744Z,64.87
2022-10-28T05:07:58.391Z,65.53
2022-10-28T05:10:26.057Z,63.13
2022-10-28T05:12:53.687Z,67.30
2022-10-28T05:15:22.018Z,66.43
2022-10-28T05:17:50.386Z,66.27
2022-10-28T05:20:19.365Z,68.27
2022-10-28T05:22:50.060Z,70.20
2022-10-28T05:25:18.040Z,67.03
2022-10-28T05:27:46.025Z,69.47
2022-10-28T05:30:14.953Z,68.03
2022-10-28T05:32:42.836Z,68.10
2022-10-28T05:35:11.430Z,70.57
2022-10-28T05:37:38.965Z,71.97
2022-10-28T05:40:09.453Z,68.60
2022-10-28T05:42:41.713Z,69.13
2022-10-28T05:45:09.994Z,70.33
2022-10-28T05:47:39.981Z,73.50
2022-10-28T05:50:08.435Z,74.03
2022-10-28T05:52:35.954Z,70.73
2022-10-28T05:55:03.495Z,73.37
2022-10-28T05:57:34.814Z,73.87
2022-10-28T06:00:02.485Z,75.10
2022-10-28T06:02:30.020Z,73.03
2022-10-28T06:04:57.571Z,77.57
2022-10-28T06:07:25.168Z,80.50
2022-10-28T06:09:52.805Z,72.13
2022-10-28T06:12:18.810Z,79.90
2022-10-28T06:14:47.716Z,76.07
2022-10-28T06:17:15.260Z,79.40
2022-10-28T06:19:42.827Z,78.63
2022-10-28T06:22:11.042Z,80.67
2022-10-28T06:24:38.590Z,74.23
2022-10-28T06:27:06.545Z,76.43
2022-10-28T06:29:34.182Z,77.50
2022-10-28T06:32:03.310Z,72.23
2022-10-28T06:34:30.833Z,74.10
2022-10-28T06:36:58.378Z,78.03
2022-10-28T06:41:54.373Z,73.73
2022-10-28T06:44:21.904Z,71.60
2022-10-28T06:46:50.947Z,73.27
2022-10-28T06:49:19.843Z,70.00
2022-10-28T06:51:47.364Z,70.47
2022-10-28T06:54:14.904Z,72.03
2022-10-28T06:56:45.172Z,70.90
2022-10-28T06:59:13.537Z,70.80
2022-10-28T07:01:41.200Z,64.77
2022-10-28T07:04:12.671Z,65.30
2022-10-28T07:06:41.706Z,64.87
2022-10-28T07:09:10.112Z,66.57
2022-10-28T07:11:37.656Z,64.87
2022-10-28T07:14:05.192Z,69.03
2022-10-28T07:16:32.747Z,66.60
2022-10-28T07:19:00.324Z,65.53
2022-10-28T07:21:29.771Z,63.40
2022-10-28T07:23:58.661Z,63.63
2022-10-28T07:26:26.344Z,60.17
2022-10-28T07:28:54.448Z,63.13
2022-10-28T07:31:22.331Z,60.17
2022-10-28T07:33:53.364Z,60.00
2022-10-28T07:36:21.400Z,61.23
2022-10-28T07:38:49.988Z,58.70
2022-10-28T07:41:20.451Z,56.10
2022-10-28T07:43:47.986Z,56.30
2022-10-28T07:46:15.685Z,52.03
2022-10-28T07:48:43.595Z,51.47
2022-10-28T07:51:14.053Z,50.90
2022-10-28T07:53:42.502Z,48.07
2022-10-28T07:56:13.513Z,44.67
2022-10-28T07:58:43.546Z,46.40
2022-10-28T08:01:13.120Z,45.83
2022-10-28T08:03:41.099Z,43.50
2022-10-28T08:06:11.379Z,43.27
2022-10-28T08:08:39.867Z,46.23
2022-10-28T08:11:11.333Z,42.77
2022-10-28T08:13:40.264Z,46.20
2022-10-28T08:16:09.994Z,45.53
2022-10-28T08:18:38.636Z,44.63
2022-10-28T08:21:07.616Z,43.27
2022-10-28T08:23:35.554Z,44.27
2022-10-28T08:26:03.660Z,43.37
2022-10-28T08:28:31.268Z,46.87
2022-10-28T08:31:08.775Z,44.53
2022-10-28T08:33:39.499Z,46.23
2022-10-28T08:36:08.505Z,47.10
2022-10-28T08:38:36.049Z,46.13
2022-10-28T08:41:13.593Z,44.53
2022-10-28T08:43:58.114Z,45.50
2022-10-28T08:46:35.878Z,44.23
2022-10-28T08:49:10.914Z,45.03
2022-10-28T08:51:46.041Z,42.90
2022-10-28T08:54:18.781Z,44.27
2022-10-28T08:56:49.813Z,43.10
2022-10-28T08:59:22.583Z,42.43
2022-10-28T09:04:30.740Z,42.20
2022-10-28T09:06:58.396Z,43.73
2022-10-28T09:09:26.139Z,44.07
2022-10-28T09:12:16.650Z,41.27
2022-10-28T09:14:58.711Z,43.60
2022-10-28T09:17:38.352Z,42.17
2022-10-28T09:20:18.235Z,41.60
2022-10-28T09:22:56.623Z,43.40
2022-10-28T09:25:32.052Z,42.80
2022-10-28T09:28:16.116Z,45.27
2022-10-28T09:30:53.082Z,44.00
2022-10-28T09:33:50.781Z,51.67
2022-10-28T09:36:25.396Z,43.13
2022-10-28T09:38:57.184Z,43.70
2022-10-28T09:41:28.991Z,46.07
2022-10-28T09:44:04.740Z,43.90
2022-10-28T09:46:36.246Z,43.73
2022-10-28T09:49:12.616Z,42.40
2022-10-28T09:51:48.947Z,41.53
2022-10-28T09:54:17.849Z,43.53
2022-10-28T09:56:45.377Z,42.13
2022-10-28T09:59:15.480Z,44.03
2022-10-28T10:01:45.741Z,40.70
2022-10-28T10:04:19.515Z,41.57
2022-10-28T10:06:52.484Z,39.77
2022-10-28T10:09:25.629Z,38.33
2022-10-28T10:11:56.706Z,38.90
2022-10-28T10:14:29.898Z,40.07
2022-10-28T10:17:01.128Z,40.30
2022-10-28T10:19:28.690Z,39.50
2022-10-28T10:21:57.596Z,41.37
2022-10-28T10:24:29.551Z,39.40
2022-10-28T10:26:58.412Z,39.23
2022-10-28T10:29:26.649Z,39.50
2022-10-28T10:32:08.063Z,39.20
2022-10-28T10:34:36.160Z,38.53
2022-10-28T10:37:05.631Z,39.57
2022-10-28T10:39:37.390Z,37.67
2022-10-28T10:42:17.142Z,39.00
2022-10-28T10:44:44.934Z,40.03
2022-10-28T10:47:19.941Z,37.97
2022-10-28T10:49:49.676Z,39.10
2022-10-28T10:52:22.685Z,38.57
2022-10-28T10:55:02.339Z,37.47
2022-10-28T10:57:30.599Z,36.93
2022-10-28T10:59:58.762Z,37.93
2022-10-28T11:02:30.848Z,36.43
2022-10-28T11:05:01.165Z,35.63
2022-10-28T11:07:32.800Z,36.47
2022-10-28T11:10:01.419Z,35.57
2022-10-28T11:12:31.854Z,35.67
2022-10-28T11:15:00.987Z,35.57
2022-10-28T11:17:30.328Z,34.63
2022-10-28T11:20:00.217Z,34.40
2022-10-28T11:22:43.815Z,34.00
2022-10-28T11:25:34.009Z,33.77
2022-10-28T11:28:14.204Z,35.37
2022-10-28T11:30:55.518Z,33.03
2022-10-28T11:33:32.681Z,33.60
2022-10-28T11:36:10.755Z,32.20
2022-10-28T11:38:57.828Z,32.43
2022-10-28T11:41:36.923Z,31.07
2022-10-28T11:44:16.307Z,30.43
2022-10-28T11:47:00.884Z,31.70
2022-10-28T11:49:43.489Z,29.13
2022-10-28T11:52:25.928Z,29.67
2022-10-28T11:55:08.402Z,31.43
2022-10-28T11:57:53.089Z,29.03
2022-10-28T12:00:33.662Z,30.23
2022-10-28T12:03:19.544Z,29.77
2022-10-28T12:05:54.548Z,29.40
2022-10-28T12:08:44.669Z,31.50
2022-10-28T12:11:24.548Z,30.60
2022-10-28T12:13:59.320Z,28.47
2022-10-28T12:16:35.418Z,29.10
2022-10-28T12:19:09.268Z,29.50
2022-10-28T12:21:41.000Z,29.97
2022-10-28T12:24:15.754Z,29.17
2022-10-28T12:26:49.327Z,27.80
2022-10-28T12:29:21.960Z,26.97
2022-10-28T12:31:54.868Z,27.30
2022-10-28T12:34:29.214Z,26.57
2022-10-28T12:37:02.627Z,25.87
2022-10-28T12:39:34.809Z,24.70
2022-10-28T12:42:12.224Z,24.17
2022-10-28T12:44:40.588Z,24.30
2022-10-28T12:47:18.461Z,22.83
2022-10-28T12:49:56.722Z,22.97
2022-10-28T12:52:34.103Z,20.67
2022-10-28T12:55:08.508Z,21.83
2022-10-28T12:57:39.716Z,21.33
2022-10-28T13:00:18.945Z,20.70
2022-10-28T13:02:52.040Z,20.80
2022-10-28T13:05:25.401Z,20.97
2022-10-28T13:08:17.931Z,18.97
2022-10-28T13:10:51.194Z,22.07
2022-10-28T13:13:32.745Z,18.63
2022-10-28T13:16:25.979Z,18.73
2022-10-28T13:19:19.325Z,17.97
2022-10-28T13:22:11.688Z,20.00
2022-10-28T13:24:50.323Z,18.57
2022-10-28T13:27:18.536Z,19.03
2022-10-28T13:29:52.898Z,20.13
2022-10-28T13:32:34.084Z,19.27
2022-10-28T13:35:14.837Z,19.83
2022-10-28T13:37:46.908Z,19.97
2022-10-28T13:41:02.301Z,20.60
2022-10-28T13:44:14.968Z,21.90
2022-10-28T13:47:19.184Z,20.17
2022-10-28T13:50:14.900Z,21.10
2022-10-28T13:52:44.191Z,19.80
2022-10-28T13:55:23.553Z,20.50
2022-10-28T13:57:53.576Z,20.50
2022-10-28T14:00:38.621Z,20.40
2022-10-28T14:03:16.384Z,21.23
2022-10-28T14:05:58.311Z,23.57
2022-10-28T14:08:30.855Z,22.13
2022-10-28T14:11:09.909Z,21.63
2022-10-28T14:13:40.625Z,23.07
2022-10-28T14:16:18.181Z,22.83
2022-10-28T14:18:55.616Z,21.73
2022-10-28T14:21:25.071Z,21.97
2022-10-28T14:24:32.353Z,21.33
2022-10-28T14:27:31.110Z,22.00
2022-10-28T14:30:18.728Z,22.57
2022-10-28T14:32:58.423Z,21.60
2022-10-28T14:35:34.051Z,22.07
2022-10-28T14:38:48.404Z,23.00
2022-10-28T14:41:52.196Z,23.70
2022-10-28T14:44:39.700Z,23.50
2022-10-28T14:47:25.306Z,26.53
2022-10-28T14:50:01.580Z,24.57
2022-10-28T14:52:31.140Z,25.23
2022-10-28T14:55:02.928Z,25.47
2022-10-28T14:57:33.995Z,25.57
2022-10-28T15:00:05.341Z,25.87
2022-10-28T15:02:35.639Z,26.67
2022-10-28T15:05:14.344Z,25.83
2022-10-28T15:07:42.893Z,28.97
2022-10-28T15:10:18.844Z,27.30
2022-10-28T15:12:48.904Z,27.97
2022-10-28T15:15:18.802Z,28.87
2022-10-28T15:17:46.500Z,31.37
2022-10-28T15:20:21.886Z,28.73
2022-10-28T15:22:49.560Z,29.33
2022-10-28T15:25:20.876Z,30.30
2022-10-28T15:27:52.448Z,30.37
2022-10-28T15:30:23.564Z,30.47
2022-10-28T15:32:51.775Z,31.60
2022-10-28T15:35:39.093Z,32.30
2022-10-28T15:38:26.344Z,35.50
2022-10-28T15:40:55.541Z,35.20
2022-10-28T15:43:25.840Z,34.07
2022-10-28T15:45:53.492Z,34.57
2022-10-28T15:48:24.523Z,34.83
2022-10-28T15:51:13.514Z,35.17
2022-10-28T15:53:41.670Z,36.97
2022-10-28T15:56:22.915Z,36.77
2022-10-28T15:59:04.131Z,38.03
2022-10-28T16:01:38.752Z,37.40
2022-10-28T16:04:07.133Z,38.90
2022-10-28T16:06:37.317Z,39.47
2022-10-28T16:09:13.131Z,38.70
2022-10-28T16:11:45.950Z,38.77
2022-10-28T16:14:30.991Z,40.37
2022-10-28T16:17:12.440Z,39.43
2022-10-28T16:19:43.544Z,41.10
2022-10-28T16:22:13.845Z,39.23
2022-10-28T16:24:41.499Z,39.80
2022-10-28T16:27:22.127Z,41.70
2022-10-28T16:29:50.607Z,40.87
2022-10-28T16:32:25.923Z,40.63
2022-10-28T16:34:53.467Z,40.60
2022-10-28T16:37:23.944Z,39.70
2022-10-28T16:39:51.628Z,42.33
2022-10-28T16:42:21.854Z,41.00
2022-10-28T16:44:49.637Z,41.07
2022-10-28T16:47:19.727Z,41.20
2022-10-28T16:49:52.502Z,43.67
2022-10-28T16:52:25.829Z,42.30
2022-10-28T16:54:53.596Z,40.30
2022-10-28T16:59:56.601Z,43.20
2022-10-28T17:02:28.153Z,42.67
2022-10-28T17:04:55.826Z,41.77
2022-10-28T17:07:23.464Z,41.90
2022-10-28T17:09:51.942Z,42.57
2022-10-28T17:12:22.749Z,43.00
2022-10-28T17:14:50.427Z,43.90
2022-10-28T17:17:18.485Z,42.67
2022-10-28T17:19:46.753Z,41.73
2022-10-28T17:22:14.635Z,42.00
2022-10-28T17:24:42.308Z,42.97
2022-10-28T17:27:09.932Z,44.77
2022-10-28T17:29:39.044Z,43.53
2022-10-28T17:32:08.547Z,43.27
2022-10-28T17:34:36.304Z,44.40
2022-10-28T17:37:04.269Z,43.00
2022-10-28T17:39:32.035Z,45.17
2022-10-28T17:41:59.617Z,44.03
2022-10-28T17:44:27.296Z,44.53
2022-10-28T17:46:56.238Z,43.73
2022-10-28T17:49:23.768Z,45.40
2022-10-28T17:51:52.059Z,45.50
2022-10-28T17:54:19.636Z,44.50
2022-10-28T17:56:47.732Z,44.70
2022-10-28T17:59:15.707Z,45.53
2022-10-28T18:01:43.438Z,45.27
2022-10-28T18:04:12.458Z,45.63
2022-10-28T18:06:40.352Z,44.53
2022-10-28T18:09:11.569Z,47.30
2022-10-28T18:11:39.812Z,43.60
2022-10-28T18:14:07.674Z,43.50
2022-10-28T18:16:37.566Z,43.40
2022-10-28T18:19:06.482Z,43.03
2022-10-28T18:21:35.598Z,45.17
2022-10-28T18:24:04.479Z,46.33
2022-10-28T18:26:32.700Z,45.67
2022-10-28T18:29:03.776Z,46.50
2022-10-28T18:31:32.912Z,46.97
2022-10-28T18:34:01.323Z,47.40
2022-10-28T18:36:30.781Z,47.37
2022-10-28T18:38:59.681Z,46.27
2022-10-28T18:41:29.507Z,46.03
2022-10-28T18:43:58.592Z,44.63
2022-10-28T18:46:26.608Z,45.83
2022-10-28T18:48:54.673Z,46.20
2022-10-28T18:51:22.517Z,46.60
2022-10-28T18:53:50.587Z,44.77
2022-10-28T18:56:21.442Z,46.63
2022-10-28T18:58:51.490Z,45.57
2022-10-28T19:01:20.986Z,45.27
2022-10-28T19:03:52.755Z,49.17
2022-10-28T19:06:21.051Z,46.40
2022-10-28T19:08:53.288Z,47.57
2022-10-28T19:11:23.026Z,46.83
2022-10-28T19:13:50.640Z,46.80
2022-10-28T19:16:18.508Z,47.13
2022-10-28T19:18:46.044Z,45.07
2022-10-28T19:21:15.217Z,47.33
2022-10-28T19:23:43.710Z,45.63
2022-10-28T19:26:13.064Z,49.60
2022-10-28T19:28:43.189Z,47.80
2022-10-28T19:31:12.678Z,46.93
2022-10-28T19:33:40.709Z,47.30
2022-10-28T19:36:12.754Z,45.10
2022-10-28T19:38:40.295Z,47.97
2022-10-28T19:41:10.045Z,47.57
2022-10-28T19:43:38.194Z,47.27
2022-10-28T19:46:10.209Z,47.80
2022-10-28T19:48:38.700Z,46.60
2022-10-28T19:51:06.757Z,49.13
2022-10-28T19:53:34.633Z,46.83
2022-10-28T19:56:04.103Z,45.67
2022-10-28T19:58:32.562Z,45.87
2022-10-28T20:01:01.781Z,44.70
2022-10-28T20:03:34.427Z,45.67
2022-10-28T20:06:06.427Z,46.93
2022-10-28T20:08:35.249Z,46.20
2022-10-28T20:11:04.643Z,46.37
2022-10-28T20:13:32.497Z,46.90
2022-10-28T20:16:02.838Z,45.30
2022-10-28T20:18:32.991Z,46.50
2022-10-28T20:21:05.745Z,45.37
2022-10-28T20:23:35.539Z,46.63
2022-10-28T20:26:04.508Z,44.33
2022-10-28T20:28:32.327Z,47.93
2022-10-28T20:31:01.511Z,45.83
2022-10-28T20:33:30.137Z,45.87
2022-10-28T20:35:59.404Z,46.27
2022-10-28T20:38:27.910Z,44.63
2022-10-28T20:40:57.504Z,47.67
2022-10-28T20:43:26.888Z,47.90
2022-10-28T20:45:56.212Z,45.37
2022-10-28T20:48:24.431Z,50.50
2022-10-28T20:50:53.496Z,49.17
2022-10-28T20:53:23.851Z,49.63
2022-10-28T20:55:52.382Z,45.80
2022-10-28T20:58:21.440Z,46.57
2022-10-28T21:00:49.240Z,52.20
2022-10-28T21:03:17.190Z,45.83
2022-10-28T21:05:44.824Z,53.93
2022-10-28T21:08:13.268Z,46.40
2022-10-28T21:10:42.237Z,48.23
2022-10-28T21:13:09.772Z,51.97
2022-10-28T21:15:39.138Z,46.07
2022-10-28T21:18:08.547Z,53.93
2022-10-28T21:20:36.983Z,44.83
2022-10-28T21:23:05.157Z,56.70
2022-10-28T21:25:33.526Z,45.43
2022-10-28T21:28:02.425Z,46.50
2022-10-28T21:30:30.072Z,50.87
2022-10-28T21:32:58.097Z,48.87
2022-10-28T21:35:26.776Z,45.77
2022-10-28T21:37:55.995Z,50.57
2022-10-28T21:40:23.845Z,60.10
2022-10-28T21:42:51.391Z,44.40
2022-10-28T21:45:20.268Z,47.17
2022-10-28T21:47:47.883Z,52.50
2022-10-28T21:50:15.686Z,50.90
2022-10-28T21:52:43.252Z,54.87
2022-10-28T21:55:20.379Z,45.73
2022-10-28T21:57:54.903Z,45.23
2022-10-28T22:00:24.152Z,47.47
2022-10-28T22:02:52.101Z,43.60
2022-10-28T22:05:19.766Z,44.13
2022-10-28T22:07:47.297Z,43.87
2022-10-28T22:10:15.064Z,43.73
2022-10-28T22:12:42.609Z,46.10
2022-10-28T22:15:10.765Z,44.23
2022-10-28T22:17:40.226Z,42.87
2022-10-28T22:20:09.714Z,44.70
2022-10-28T22:22:37.738Z,43.50
2022-10-28T22:25:09.413Z,44.80
2022-10-28T22:27:38.203Z,47.60
2022-10-28T22:30:06.212Z,42.07
2022-10-28T22:32:33.781Z,45.47
2022-10-28T22:35:02.749Z,44.63
2022-10-28T22:37:30.348Z,42.63
2022-10-28T22:39:57.922Z,39.90
2022-10-28T22:42:25.667Z,43.30
2022-10-28T22:44:53.192Z,43.90
2022-10-28T22:47:20.729Z,41.93
2022-10-28T22:49:48.247Z,41.60
2022-10-28T22:52:17.137Z,41.97
2022-10-28T22:54:44.641Z,43.00
2022-10-28T22:57:12.195Z,43.73
2022-10-28T22:59:39.735Z,43.50
2022-10-28T23:02:07.353Z,42.07
2022-10-28T23:04:34.959Z,42.30
2022-10-28T23:07:02.511Z,42.10
2022-10-28T23:09:31.388Z,43.00
2022-10-28T23:11:58.917Z,46.53
2022-10-28T23:14:26.458Z,46.07
2022-10-28T23:16:53.996Z,42.23
2022-10-28T23:19:21.538Z,41.83
2022-10-28T23:21:49.060Z,45.27
2022-10-28T23:24:16.608Z,50.07
2022-10-28T23:26:45.539Z,40.80
2022-10-28T23:29:14.074Z,43.00
2022-10-28T23:31:41.583Z,41.77
2022-10-28T23:34:09.134Z,41.53
2022-10-28T23:36:36.668Z,41.10
2022-10-28T23:39:04.236Z,43.07
2022-10-28T23:41:31.766Z,46.07
2022-10-28T23:44:01.404Z,41.23
2022-10-28T23:46:32.301Z,45.07
2022-10-28T23:49:02.436Z,43.27
2022-10-28T23:51:29.969Z,40.43
2022-10-28T23:53:57.631Z,47.20
2022-10-28T23:56:25.323Z,40.57
2022-10-28T23:58:52.848Z,40.80
